Time;durP1;ratioP1;P1;durP2;ratioP2;P2;SDS_P1;SDS_P2;PMS_P1;PMS_P2;Temp;Humidity;BMP_temperature;BMP_pressure;BME280_temperature;BME280_humidity;BME280_pressure;Samples;Min_cycle;Max_cycle;Signal;HPM_P1;HPM_P2
2022/07/26 00:00:11;;;;;;;10.30;7.90;;;;;;;;;;5093731;28;20445;-72
2022/07/26 00:02:38;;;;;;;9.93;8.20;;;;;;;;;;5093385;28;20988;-72
2022/07/26 00:05:06;;;;;;;12.40;8.80;;;;;;;;;;5093268;28;20452;-72
2022/07/26 00:07:33;;;;;;;9.40;7.97;;;;;;;;;;5093544;28;20528;-72
2022/07/26 00:10:02;;;;;;;11.93;8.60;;;;;;;;;;5093198;28;20447;-72
2022/07/26 00:12:29;;;;;;;17.40;9.20;;;;;;;;;;5093430;28;20500;-72
2022/07/26 00:14:56;;;;;;;10.50;8.80;;;;;;;;;;5093469;28;20474;-72
2022/07/26 00:17:23;;;;;;;10.50;9.23;;;;;;;;;;5093435;28;20458;-72
2022/07/26 00:19:50;;;;;;;16.60;9.70;;;;;;;;;;5093482;28;20489;-72
2022/07/26 00:22:38;;;;;;;10.50;8.80;;;;;;;;;;5093297;28;20995;-72
2022/07/26 00:25:08;;;;;;;12.37;9.83;;;;;;;;;;5093377;28;20474;-72
2022/07/26 00:27:36;;;;;;;13.27;8.73;;;;;;;;;;5093304;28;20439;-72
2022/07/26 00:30:04;;;;;;;8.97;8.00;;;;;;;;;;5093602;28;20483;-72
2022/07/26 00:32:31;;;;;;;10.20;8.80;;;;;;;;;;5093229;28;20478;-72
2022/07/26 00:34:58;;;;;;;12.10;9.77;;;;;;;;;;5092982;28;20465;-72
2022/07/26 00:37:25;;;;;;;14.57;9.23;;;;;;;;;;5092943;28;20463;-72
2022/07/26 00:39:53;;;;;;;14.30;9.07;;;;;;;;;;5093252;28;20439;-72
2022/07/26 00:42:22;;;;;;;19.47;9.77;;;;;;;;;;5092914;28;20837;-72
2022/07/26 00:44:49;;;;;;;16.10;9.63;;;;;;;;;;5093264;28;20435;-72
2022/07/26 00:47:17;;;;;;;19.13;9.87;;;;;;;;;;5092839;28;20447;-72
2022/07/26 00:49:44;;;;;;;15.10;9.93;;;;;;;;;;5093002;28;20427;-72
2022/07/26 00:52:11;;;;;;;13.20;9.20;;;;;;;;;;5093121;28;20653;-72
2022/07/26 00:54:39;;;;;;;10.73;8.23;;;;;;;;;;5093052;28;20454;-72
2022/07/26 00:57:07;;;;;;;12.17;8.77;;;;;;;;;;5093170;28;20454;-72
2022/07/26 00:59:35;;;;;;;10.00;7.90;;;;;;;;;;5093209;28;20922;-72
2022/07/26 01:02:03;;;;;;;17.43;9.40;;;;;;;;;;5092644;28;20487;-72
2022/07/26 01:04:30;;;;;;;10.33;7.30;;;;;;;;;;5093088;28;20447;-72
2022/07/26 01:06:57;;;;;;;10.73;9.70;;;;;;;;;;5093033;28;20796;-72
2022/07/26 01:09:24;;;;;;;11.73;9.47;;;;;;;;;;5092935;28;20446;-72
2022/07/26 01:11:52;;;;;;;12.77;9.13;;;;;;;;;;5092569;28;20478;-72
2022/07/26 01:14:20;;;;;;;10.40;8.40;;;;;;;;;;5092956;28;20450;-72
2022/07/26 01:16:48;;;;;;;9.80;7.90;;;;;;;;;;5095627;28;20457;-72
2022/07/26 01:19:15;;;;;;;13.57;8.23;;;;;;;;;;5096683;28;20972;-72
2022/07/26 01:21:45;;;;;;;7.10;6.17;;;;;;;;;;5096238;28;20501;-72
2022/07/26 01:24:13;;;;;;;7.83;7.03;;;;;;;;;;5096441;28;20465;-72
2022/07/26 01:26:40;;;;;;;9.60;7.20;;;;;;;;;;5096132;28;20443;-72
2022/07/26 01:29:07;;;;;;;9.00;6.40;;;;;;;;;;5096043;28;20451;-72
2022/07/26 01:31:34;;;;;;;10.50;6.50;;;;;;;;;;5096193;28;20791;-72
2022/07/26 01:34:01;;;;;;;7.73;6.90;;;;;;;;;;5096313;28;20505;-72
2022/07/26 01:36:28;;;;;;;11.47;7.30;;;;;;;;;;5096115;28;20944;-72
2022/07/26 01:38:57;;;;;;;7.40;6.30;;;;;;;;;;5095877;28;20443;-72
2022/07/26 01:41:24;;;;;;;9.47;6.90;;;;;;;;;;5095981;28;20480;-72
2022/07/26 01:43:51;;;;;;;11.63;8.33;;;;;;;;;;5095840;28;20462;-72
2022/07/26 01:46:18;;;;;;;8.43;6.27;;;;;;;;;;5096056;28;20446;-72
2022/07/26 01:48:45;;;;;;;12.27;7.80;;;;;;;;;;5096155;28;20450;-71
2022/07/26 01:51:12;;;;;;;11.20;7.97;;;;;;;;;;5095777;28;20458;-71
2022/07/26 01:53:39;;;;;;;6.87;6.17;;;;;;;;;;5095805;28;20470;-71
2022/07/26 01:56:08;;;;;;;11.60;7.80;;;;;;;;;;5095756;28;20814;-71
2022/07/26 01:58:35;;;;;;;7.97;6.27;;;;;;;;;;5095380;28;20462;-71
2022/07/26 02:01:02;;;;;;;8.60;6.60;;;;;;;;;;5095585;28;20513;-71
2022/07/26 02:03:29;;;;;;;8.43;7.17;;;;;;;;;;5095498;28;20471;-71
2022/07/26 02:05:56;;;;;;;10.17;8.10;;;;;;;;;;5095258;28;20454;-71
2022/07/26 02:08:23;;;;;;;12.20;8.20;;;;;;;;;;5095284;28;20443;-71
2022/07/26 02:11:00;;;;;;;9.70;8.27;;;;;;;;;;5095150;28;20451;-71
2022/07/26 02:13:28;;;;;;;12.43;9.30;;;;;;;;;;5095070;28;20470;-71
2022/07/26 02:15:57;;;;;;;10.33;7.20;;;;;;;;;;5095323;28;20447;-71
2022/07/26 02:18:25;;;;;;;9.97;8.80;;;;;;;;;;5095773;28;20454;-71
2022/07/26 02:20:52;;;;;;;11.63;9.10;;;;;;;;;;5095185;28;20485;-71
2022/07/26 02:23:19;;;;;;;10.73;8.17;;;;;;;;;;5095065;28;20466;-71
2022/07/26 02:25:46;;;;;;;10.97;8.20;;;;;;;;;;5095195;28;20817;-71
2022/07/26 02:28:13;;;;;;;10.40;9.30;;;;;;;;;;5094908;28;20446;-71
2022/07/26 02:30:42;;;;;;;10.77;8.00;;;;;;;;;;5095074;28;20904;-71
2022/07/26 02:33:09;;;;;;;14.77;9.10;;;;;;;;;;5095020;28;20478;-71
2022/07/26 02:35:36;;;;;;;14.10;8.67;;;;;;;;;;5095264;28;20451;-71
2022/07/26 02:38:04;;;;;;;11.37;8.70;;;;;;;;;;5094918;28;20818;-71
2022/07/26 02:40:31;;;;;;;11.60;9.90;;;;;;;;;;5094698;28;20445;-71
2022/07/26 02:42:58;;;;;;;10.70;8.77;;;;;;;;;;5094580;28;20494;-71
2022/07/26 02:45:25;;;;;;;11.70;9.30;;;;;;;;;;5094826;28;20446;-71
2022/07/26 02:47:54;;;;;;;10.47;9.03;;;;;;;;;;5094789;28;20447;-71
2022/07/26 02:50:22;;;;;;;9.70;8.30;;;;;;;;;;5094997;28;20800;-71
2022/07/26 02:52:50;;;;;;;10.50;9.27;;;;;;;;;;5094588;28;20510;-71
2022/07/26 02:55:17;;;;;;;11.13;8.30;;;;;;;;;;5094344;28;20442;-71
2022/07/26 02:57:45;;;;;;;10.73;7.97;;;;;;;;;;5094532;28;20450;-71
2022/07/26 03:00:13;;;;;;;8.60;7.70;;;;;;;;;;5094529;28;20455;-71
2022/07/26 03:02:40;;;;;;;13.03;9.53;;;;;;;;;;5094016;28;20497;-71
2022/07/26 03:05:10;;;;;;;11.57;8.80;;;;;;;;;;5094152;28;20461;-71
2022/07/26 03:07:37;;;;;;;9.53;7.00;;;;;;;;;;5094509;28;20808;-72
2022/07/26 03:10:04;;;;;;;13.83;8.57;;;;;;;;;;5094325;28;20458;-71
2022/07/26 03:12:31;;;;;;;11.03;7.57;;;;;;;;;;5094223;28;20467;-71
2022/07/26 03:14:58;;;;;;;9.33;7.80;;;;;;;;;;5094233;28;20451;-71
2022/07/26 03:17:26;;;;;;;10.60;7.53;;;;;;;;;;5094181;28;20814;-71
2022/07/26 03:19:53;;;;;;;9.60;7.90;;;;;;;;;;5094132;28;20463;-71
2022/07/26 03:22:21;;;;;;;10.00;7.80;;;;;;;;;;5094018;28;20494;-71
2022/07/26 03:24:48;;;;;;;9.37;8.20;;;;;;;;;;5094026;28;20461;-71
2022/07/26 03:27:15;;;;;;;9.00;8.10;;;;;;;;;;5093728;28;20454;-71
2022/07/26 03:29:42;;;;;;;8.33;7.53;;;;;;;;;;5093735;28;20455;-71
2022/07/26 03:32:09;;;;;;;10.50;8.63;;;;;;;;;;5093927;28;20493;-71
2022/07/26 03:34:37;;;;;;;8.93;7.97;;;;;;;;;;5093915;28;20450;-71
2022/07/26 03:37:04;;;;;;;10.43;8.37;;;;;;;;;;5093884;28;20939;-71
2022/07/26 03:39:32;;;;;;;9.23;7.47;;;;;;;;;;5093278;28;20442;-71
2022/07/26 03:41:59;;;;;;;8.60;7.70;;;;;;;;;;5093411;28;20493;-71
2022/07/26 03:44:26;;;;;;;9.10;8.20;;;;;;;;;;5093655;28;20466;-71
2022/07/26 03:46:53;;;;;;;8.70;7.77;;;;;;;;;;5093797;28;20451;-71
2022/07/26 03:49:20;;;;;;;9.60;7.77;;;;;;;;;;5093733;28;20952;-71
2022/07/26 03:51:48;;;;;;;10.77;8.30;;;;;;;;;;5093617;28;20471;-71
2022/07/26 03:54:15;;;;;;;8.83;7.40;;;;;;;;;;5093344;28;20454;-71
2022/07/26 03:56:42;;;;;;;8.40;6.90;;;;;;;;;;5093627;28;20450;-71
2022/07/26 03:59:11;;;;;;;8.97;7.83;;;;;;;;;;5093556;28;20458;-71
2022/07/26 04:01:40;;;;;;;8.33;7.00;;;;;;;;;;5093402;28;20486;-71
2022/07/26 04:04:08;;;;;;;10.47;8.10;;;;;;;;;;5093522;28;20864;-71
2022/07/26 04:06:36;;;;;;;8.60;7.10;;;;;;;;;;5093518;28;20482;-71
2022/07/26 04:09:03;;;;;;;12.07;7.90;;;;;;;;;;5093518;28;20453;-71
2022/07/26 04:11:30;;;;;;;10.93;7.73;;;;;;;;;;5093420;28;20451;-71
2022/07/26 04:13:59;;;;;;;17.03;8.53;;;;;;;;;;5093500;28;20450;-71
2022/07/26 04:16:26;;;;;;;8.97;7.40;;;;;;;;;;5093419;28;20447;-71
2022/07/26 04:18:53;;;;;;;9.27;8.37;;;;;;;;;;5093432;28;20450;-71
2022/07/26 04:21:20;;;;;;;13.60;9.00;;;;;;;;;;5093316;28;20455;-71
2022/07/26 04:23:47;;;;;;;10.87;7.87;;;;;;;;;;5093866;28;20467;-71
2022/07/26 04:26:15;;;;;;;9.87;6.80;;;;;;;;;;5093113;28;20458;-71
2022/07/26 04:28:42;;;;;;;12.77;7.10;;;;;;;;;;5093332;28;20828;-71
2022/07/26 04:31:11;;;;;;;10.27;7.53;;;;;;;;;;5093303;28;20944;-71
2022/07/26 04:33:38;;;;;;;9.80;8.07;;;;;;;;;;5093154;28;20475;-71
2022/07/26 04:36:05;;;;;;;8.77;7.87;;;;;;;;;;5093315;28;20453;-71
2022/07/26 04:38:32;;;;;;;8.13;7.30;;;;;;;;;;5093284;28;20451;-71
2022/07/26 04:40:59;;;;;;;8.87;7.70;;;;;;;;;;5093279;28;20935;-71
2022/07/26 04:43:27;;;;;;;8.67;7.20;;;;;;;;;;5092684;28;20502;-71
2022/07/26 04:45:56;;;;;;;7.93;7.10;;;;;;;;;;5093122;28;20450;-71
2022/07/26 04:48:24;;;;;;;9.80;8.80;;;;;;;;;;5093194;28;20496;-71
2022/07/26 04:50:52;;;;;;;8.03;6.50;;;;;;;;;;5096406;28;20454;-71
2022/07/26 04:53:19;;;;;;;8.23;7.50;;;;;;;;;;5096944;28;20832;-71
2022/07/26 04:55:46;;;;;;;13.40;7.50;;;;;;;;;;5096958;28;20866;-71
2022/07/26 04:58:13;;;;;;;8.27;7.20;;;;;;;;;;5096508;28;20541;-71
2022/07/26 05:00:41;;;;;;;7.60;6.40;;;;;;;;;;5096806;28;20442;-71
2022/07/26 05:03:08;;;;;;;11.43;7.57;;;;;;;;;;5096974;28;20517;-71
2022/07/26 05:05:37;;;;;;;9.10;7.60;;;;;;;;;;5096707;28;20974;-71
2022/07/26 05:08:04;;;;;;;9.20;7.40;;;;;;;;;;5096680;28;20461;-71
2022/07/26 05:10:32;;;;;;;9.63;7.07;;;;;;;;;;5096666;28;20936;-71
2022/07/26 05:12:59;;;;;;;9.37;7.27;;;;;;;;;;5096188;28;20470;-71
2022/07/26 05:15:26;;;;;;;11.03;7.97;;;;;;;;;;5096221;28;20465;-71
2022/07/26 05:17:55;;;;;;;9.50;7.70;;;;;;;;;;5096517;28;20462;-71
2022/07/26 05:20:24;;;;;;;12.63;7.50;;;;;;;;;;5096449;28;20944;-71
2022/07/26 05:22:52;;;;;;;9.00;6.50;;;;;;;;;;5096292;28;20832;-71
2022/07/26 05:25:19;;;;;;;9.13;7.27;;;;;;;;;;5096340;28;20516;-71
2022/07/26 05:27:46;;;;;;;11.10;7.80;;;;;;;;;;5095961;28;20454;-71
2022/07/26 05:30:14;;;;;;;11.73;7.30;;;;;;;;;;5096012;28;20430;-71
2022/07/26 05:32:41;;;;;;;10.80;7.33;;;;;;;;;;5096109;28;20477;-71
2022/07/26 05:35:08;;;;;;;13.20;6.80;;;;;;;;;;5096490;28;20451;-71
2022/07/26 05:37:35;;;;;;;14.80;6.77;;;;;;;;;;5096141;28;20951;-71
2022/07/26 05:40:04;;;;;;;11.33;6.83;;;;;;;;;;5095907;28;20795;-71
2022/07/26 05:42:31;;;;;;;14.60;9.77;;;;;;;;;;5095967;28;20491;-71
2022/07/26 05:44:58;;;;;;;16.03;8.40;;;;;;;;;;5096019;28;20931;-71
2022/07/26 05:47:25;;;;;;;8.27;5.97;;;;;;;;;;5095986;28;20813;-71
2022/07/26 05:49:53;;;;;;;9.47;6.60;;;;;;;;;;5095969;28;20438;-71
2022/07/26 05:52:20;;;;;;;10.37;6.20;;;;;;;;;;5096217;28;20532;-71
2022/07/26 05:54:47;;;;;;;10.43;6.30;;;;;;;;;;5095483;28;20447;-71
2022/07/26 05:57:16;;;;;;;8.70;5.60;;;;;;;;;;5095399;28;20450;-71
2022/07/26 05:59:43;;;;;;;7.40;5.60;;;;;;;;;;5095772;28;20923;-71
2022/07/26 06:02:10;;;;;;;10.50;5.63;;;;;;;;;;5094540;28;20486;-71
2022/07/26 06:04:37;;;;;;;17.90;5.60;;;;;;;;;;5095466;28;20454;-71
2022/07/26 06:07:04;;;;;;;5.90;5.17;;;;;;;;;;5095325;28;20492;-71
2022/07/26 06:09:31;;;;;;;8.07;5.50;;;;;;;;;;5095524;28;20967;-71
2022/07/26 06:11:58;;;;;;;6.50;5.50;;;;;;;;;;5095416;28;20474;-71
2022/07/26 06:14:27;;;;;;;9.80;4.97;;;;;;;;;;5095682;28;20454;-71
2022/07/26 06:16:54;;;;;;;6.00;4.90;;;;;;;;;;5095440;28;20902;-71
2022/07/26 06:19:21;;;;;;;10.03;4.90;;;;;;;;;;5095353;28;20480;-71
2022/07/26 06:21:48;;;;;;;5.10;4.30;;;;;;;;;;5094866;28;20467;-71
2022/07/26 06:24:15;;;;;;;6.70;5.57;;;;;;;;;;5094831;28;20497;-71
2022/07/26 06:26:43;;;;;;;7.73;6.70;;;;;;;;;;5095492;28;20455;-71
2022/07/26 06:29:10;;;;;;;8.27;5.20;;;;;;;;;;5095000;28;20442;-71
2022/07/26 06:31:38;;;;;;;6.13;4.47;;;;;;;;;;5094789;28;20457;-71
2022/07/26 06:34:05;;;;;;;5.90;4.23;;;;;;;;;;5094997;28;20791;-71
2022/07/26 06:36:32;;;;;;;9.67;4.80;;;;;;;;;;5094989;28;20958;-71
2022/07/26 06:39:00;;;;;;;7.17;5.13;;;;;;;;;;5095063;28;20458;-71
2022/07/26 06:41:27;;;;;;;6.47;4.60;;;;;;;;;;5094904;28;20804;-71
2022/07/26 06:43:54;;;;;;;15.33;5.87;;;;;;;;;;5094503;28;21015;-71
2022/07/26 06:46:21;;;;;;;5.37;4.83;;;;;;;;;;5094797;28;20454;-71
2022/07/26 06:48:50;;;;;;;7.20;4.57;;;;;;;;;;5094449;28;20450;-71
2022/07/26 06:51:17;;;;;;;6.33;5.03;;;;;;;;;;5094997;28;20458;-71
2022/07/26 06:53:44;;;;;;;6.47;5.30;;;;;;;;;;5094606;28;20469;-71
2022/07/26 06:56:13;;;;;;;9.10;4.80;;;;;;;;;;5094290;28;20462;-71
2022/07/26 06:58:40;;;;;;;7.60;3.87;;;;;;;;;;5094510;28;20450;-71
2022/07/26 07:01:07;;;;;;;6.90;4.70;;;;;;;;;;5094538;28;20450;-71
2022/07/26 07:03:34;;;;;;;7.60;3.73;;;;;;;;;;5093983;28;20486;-71
2022/07/26 07:06:03;;;;;;;8.03;4.77;;;;;;;;;;5094162;28;20458;-71
2022/07/26 07:08:30;;;;;;;9.83;3.90;;;;;;;;;;5094464;28;20458;-71
2022/07/26 07:10:57;;;;;;;4.50;4.10;;;;;;;;;;5094344;28;20450;-71
2022/07/26 07:13:24;;;;;;;5.03;3.83;;;;;;;;;;5093019;28;20470;-71
2022/07/26 07:15:51;;;;;;;8.40;4.20;;;;;;;;;;5094042;28;20451;-71
2022/07/26 07:18:18;;;;;;;5.40;4.00;;;;;;;;;;5093906;28;20443;-71
2022/07/26 07:20:45;;;;;;;6.37;3.73;;;;;;;;;;5093864;28;20459;-71
2022/07/26 07:23:14;;;;;;;7.90;3.80;;;;;;;;;;5093746;28;20498;-71
2022/07/26 07:25:41;;;;;;;4.50;3.57;;;;;;;;;;5093773;28;20454;-71
2022/07/26 07:28:08;;;;;;;6.50;3.23;;;;;;;;;;5093783;28;20462;-71
2022/07/26 07:30:35;;;;;;;7.27;3.87;;;;;;;;;;5094302;28;20431;-71
2022/07/26 07:33:02;;;;;;;7.47;4.13;;;;;;;;;;5093893;28;20462;-71
2022/07/26 07:35:29;;;;;;;5.97;4.40;;;;;;;;;;5093981;28;20861;-71
2022/07/26 07:37:56;;;;;;;4.93;4.07;;;;;;;;;;5093901;28;20461;-71
2022/07/26 07:40:25;;;;;;;7.33;3.30;;;;;;;;;;5093908;28;20446;-71
2022/07/26 07:42:52;;;;;;;4.63;3.50;;;;;;;;;;5093533;28;21024;-72
2022/07/26 07:45:19;;;;;;;4.37;3.80;;;;;;;;;;5093759;28;20956;-72
2022/07/26 07:47:46;;;;;;;3.90;3.10;;;;;;;;;;5093734;28;20878;-72
2022/07/26 07:50:13;;;;;;;5.37;4.50;;;;;;;;;;5093722;28;20451;-71
2022/07/26 07:52:40;;;;;;;7.87;3.50;;;;;;;;;;5093327;28;20477;-71
2022/07/26 07:55:08;;;;;;;3.77;3.47;;;;;;;;;;5093401;28;20442;-71
2022/07/26 07:57:37;;;;;;;5.17;3.63;;;;;;;;;;5093609;28;20454;-72
2022/07/26 08:00:04;;;;;;;7.70;4.73;;;;;;;;;;5093343;28;20438;-71
2022/07/26 08:02:31;;;;;;;8.80;3.83;;;;;;;;;;5093407;28;20837;-72
2022/07/26 08:04:58;;;;;;;4.27;3.87;;;;;;;;;;5093784;28;20455;-72
2022/07/26 08:07:25;;;;;;;5.50;5.00;;;;;;;;;;5093337;28;20455;-72
2022/07/26 08:09:53;;;;;;;7.10;4.90;;;;;;;;;;5093220;28;20454;-71
2022/07/26 08:12:20;;;;;;;5.80;3.50;;;;;;;;;;5093430;28;20481;-71
2022/07/26 08:14:48;;;;;;;4.00;3.60;;;;;;;;;;5093437;28;20454;-71
2022/07/26 08:17:15;;;;;;;6.50;4.40;;;;;;;;;;5093231;28;20450;-71
2022/07/26 08:19:42;;;;;;;6.50;3.63;;;;;;;;;;5093173;28;20459;-72
2022/07/26 08:22:09;;;;;;;4.77;3.43;;;;;;;;;;5093005;28;20481;-72
2022/07/26 08:24:36;;;;;;;6.70;3.57;;;;;;;;;;5094375;28;20482;-72
2022/07/26 08:27:04;;;;;;;4.47;3.43;;;;;;;;;;5097175;28;20466;-72
2022/07/26 08:29:31;;;;;;;6.10;3.40;;;;;;;;;;5097505;28;20461;-72
2022/07/26 08:31:59;;;;;;;7.80;3.90;;;;;;;;;;5097337;28;20470;-72
2022/07/26 08:34:26;;;;;;;3.57;3.27;;;;;;;;;;5097348;28;20450;-72
2022/07/26 08:36:53;;;;;;;5.90;4.13;;;;;;;;;;5097012;28;20450;-72
2022/07/26 08:39:20;;;;;;;4.90;3.17;;;;;;;;;;5097234;28;20442;-72
2022/07/26 08:41:48;;;;;;;4.40;3.20;;;;;;;;;;5097240;28;20963;-72
2022/07/26 08:44:15;;;;;;;3.97;3.30;;;;;;;;;;5096942;28;20898;-72
2022/07/26 08:46:42;;;;;;;8.97;3.37;;;;;;;;;;5097072;28;20473;-72
2022/07/26 08:49:12;;;;;;;4.90;3.90;;;;;;;;;;5096757;28;20457;-72
2022/07/26 08:51:41;;;;;;;6.43;3.43;;;;;;;;;;5097052;28;20469;-72
2022/07/26 08:54:09;;;;;;;4.53;4.10;;;;;;;;;;5097344;28;20524;-71
2022/07/26 08:56:38;;;;;;;5.57;3.37;;;;;;;;;;5096998;28;20477;-71
2022/07/26 08:59:05;;;;;;;8.33;3.33;;;;;;;;;;5096602;28;20461;-71
2022/07/26 09:01:32;;;;;;;3.93;3.50;;;;;;;;;;5096596;28;20490;-71
2022/07/26 09:04:18;;;;;;;3.90;3.53;;;;;;;;;;5096732;28;20490;-71
2022/07/26 09:06:55;;;;;;;4.00;3.30;;;;;;;;;;5096819;28;20466;-71
2022/07/26 09:09:22;;;;;;;8.03;4.30;;;;;;;;;;5096788;28;20434;-72
2022/07/26 09:11:49;;;;;;;4.23;3.80;;;;;;;;;;5096600;28;20865;-72
2022/07/26 09:14:16;;;;;;;6.80;3.57;;;;;;;;;;5096597;28;20827;-71
2022/07/26 09:16:56;;;;;;;6.10;4.77;;;;;;;;;;5096493;28;20851;-71
2022/07/26 09:19:23;;;;;;;5.17;4.00;;;;;;;;;;5096306;28;20471;-71
2022/07/26 09:21:50;;;;;;;7.03;4.47;;;;;;;;;;5096326;28;20484;-71
2022/07/26 09:24:31;;;;;;;5.30;3.67;;;;;;;;;;5096046;28;20493;-71
2022/07/26 09:26:58;;;;;;;4.87;3.93;;;;;;;;;;5096469;28;20927;-71
2022/07/26 09:29:27;;;;;;;8.43;5.23;;;;;;;;;;5096326;28;20496;-71
2022/07/26 09:32:08;;;;;;;4.03;3.63;;;;;;;;;;5096274;28;20471;-71
2022/07/26 09:34:35;;;;;;;23.27;4.40;;;;;;;;;;5096233;28;20431;-71
2022/07/26 09:37:03;;;;;;;5.40;3.97;;;;;;;;;;5095112;28;20458;-71
2022/07/26 09:39:31;;;;;;;5.93;3.93;;;;;;;;;;5096117;28;20455;-71
2022/07/26 09:41:58;;;;;;;6.40;4.20;;;;;;;;;;5096019;28;20475;-71
2022/07/26 09:44:26;;;;;;;4.20;3.80;;;;;;;;;;5095853;28;20497;-71
2022/07/26 09:46:55;;;;;;;5.40;4.10;;;;;;;;;;5096075;28;20450;-71
2022/07/26 09:49:23;;;;;;;7.10;4.50;;;;;;;;;;5096058;28;20500;-72
2022/07/26 09:51:51;;;;;;;5.07;3.87;;;;;;;;;;5095785;28;20471;-71
2022/07/26 09:54:18;;;;;;;4.67;4.17;;;;;;;;;;5095863;28;20438;-71
2022/07/26 09:56:48;;;;;;;5.33;3.87;;;;;;;;;;5095488;28;20447;-71
2022/07/26 09:59:16;;;;;;;4.80;4.40;;;;;;;;;;5095457;28;20435;-71
2022/07/26 10:01:43;;;;;;;5.23;4.73;;;;;;;;;;5095640;28;20825;-71
2022/07/26 10:04:10;;;;;;;5.03;4.53;;;;;;;;;;5095313;28;20482;-72
2022/07/26 10:06:37;;;;;;;6.67;4.53;;;;;;;;;;5095623;28;21035;-72
2022/07/26 10:09:05;;;;;;;5.03;4.33;;;;;;;;;;5095515;28;20931;-72
2022/07/26 10:11:36;;;;;;;5.77;4.60;;;;;;;;;;5095419;28;20497;-72
2022/07/26 10:14:18;;;;;;;7.90;3.90;;;;;;;;;;5095451;28;20896;-72
2022/07/26 10:16:46;;;;;;;6.30;4.30;;;;;;;;;;5095055;28;20964;-72
2022/07/26 10:19:33;;;;;;;5.10;4.00;;;;;;;;;;5095362;28;20427;-72
2022/07/26 10:22:15;;;;;;;7.70;5.70;;;;;;;;;;5095050;28;20470;-72
2022/07/26 10:24:42;;;;;;;4.83;4.37;;;;;;;;;;5094884;28;20494;-72
2022/07/26 10:27:30;;;;;;;4.83;3.70;;;;;;;;;;5095178;28;20451;-72
2022/07/26 10:30:21;;;;;;;7.63;4.10;;;;;;;;;;5094745;28;20454;-72
2022/07/26 10:32:58;;;;;;;3.70;3.40;;;;;;;;;;5095027;28;20466;-72
2022/07/26 10:35:31;;;;;;;5.93;4.10;;;;;;;;;;5095068;28;20535;-72
2022/07/26 10:37:59;;;;;;;3.90;3.47;;;;;;;;;;5094937;28;20947;-72
2022/07/26 10:40:28;;;;;;;6.63;4.50;;;;;;;;;;5094802;28;20457;-72
2022/07/26 10:43:07;;;;;;;6.43;4.13;;;;;;;;;;5094942;28;20837;-72
2022/07/26 10:45:34;;;;;;;6.40;4.60;;;;;;;;;;5094836;28;20499;-72
2022/07/26 10:48:13;;;;;;;4.70;4.20;;;;;;;;;;5094681;28;20478;-72
2022/07/26 10:50:40;;;;;;;5.70;4.67;;;;;;;;;;5094781;28;20808;-72
2022/07/26 10:53:08;;;;;;;5.43;4.80;;;;;;;;;;5095265;28;20478;-72
2022/07/26 10:55:46;;;;;;;5.00;4.50;;;;;;;;;;5094647;28;20554;-72
2022/07/26 10:58:13;;;;;;;6.57;4.57;;;;;;;;;;5094583;28;20451;-72
2022/07/26 11:00:41;;;;;;;5.70;5.10;;;;;;;;;;5094599;28;20473;-72
2022/07/26 11:03:08;;;;;;;7.13;4.73;;;;;;;;;;5093972;28;20475;-72
2022/07/26 11:05:36;;;;;;;7.60;4.90;;;;;;;;;;5094426;28;20995;-72
2022/07/26 11:08:07;;;;;;;7.67;5.73;;;;;;;;;;5094170;28;20451;-72
2022/07/26 11:10:35;;;;;;;6.97;5.30;;;;;;;;;;5094397;28;20442;-72
2022/07/26 11:13:14;;;;;;;8.80;5.97;;;;;;;;;;5094020;28;20477;-72
2022/07/26 11:15:43;;;;;;;6.17;4.63;;;;;;;;;;5094011;28;20443;-72
2022/07/26 11:18:14;;;;;;;10.80;5.63;;;;;;;;;;5093963;28;20455;-72
2022/07/26 11:20:44;;;;;;;8.13;5.93;;;;;;;;;;5094324;28;20435;-72
2022/07/26 11:23:24;;;;;;;5.83;5.10;;;;;;;;;;5094423;28;20490;-72
2022/07/26 11:26:02;;;;;;;5.97;5.37;;;;;;;;;;5094040;28;20978;-72
2022/07/26 11:28:29;;;;;;;6.37;5.03;;;;;;;;;;5094022;28;20550;-71
2022/07/26 11:30:57;;;;;;;7.70;5.90;;;;;;;;;;5094037;28;20936;-71
2022/07/26 11:33:35;;;;;;;5.90;5.30;;;;;;;;;;5094015;28;20467;-71
2022/07/26 11:36:04;;;;;;;7.53;5.27;;;;;;;;;;5094078;28;20508;-71
2022/07/26 11:38:44;;;;;;;6.70;5.80;;;;;;;;;;5093402;28;20521;-71
2022/07/26 11:41:11;;;;;;;6.60;5.30;;;;;;;;;;5093897;28;20888;-71
2022/07/26 11:43:38;;;;;;;8.10;5.67;;;;;;;;;;5093592;28;20478;-71
2022/07/26 11:46:05;;;;;;;5.47;4.83;;;;;;;;;;5093796;28;20455;-71
2022/07/26 11:48:33;;;;;;;8.40;5.23;;;;;;;;;;5093967;28;20900;-72
2022/07/26 11:51:10;;;;;;;6.70;6.00;;;;;;;;;;5093995;28;20450;-72
2022/07/26 11:53:38;;;;;;;8.70;4.80;;;;;;;;;;5093900;28;20470;-72
2022/07/26 11:56:12;;;;;;;8.60;5.40;;;;;;;;;;5093714;28;20966;-72
2022/07/26 11:58:40;;;;;;;8.70;5.67;;;;;;;;;;5093376;28;20455;-72
2022/07/26 12:01:07;;;;;;;5.80;5.20;;;;;;;;;;5093392;28;20503;-72
2022/07/26 12:03:35;;;;;;;7.53;6.70;;;;;;;;;;5093496;28;20475;-72
2022/07/26 12:06:03;;;;;;;7.17;6.50;;;;;;;;;;5093634;28;20875;-72
2022/07/26 12:08:40;;;;;;;6.47;5.60;;;;;;;;;;5093212;28;20541;-72
2022/07/26 12:11:07;;;;;;;8.00;5.80;;;;;;;;;;5093375;28;20488;-72
2022/07/26 12:13:48;;;;;;;6.80;6.07;;;;;;;;;;5093714;28;20470;-72
2022/07/26 12:16:30;;;;;;;6.43;5.30;;;;;;;;;;5093556;28;20488;-72
2022/07/26 12:18:57;;;;;;;5.73;5.13;;;;;;;;;;5093424;28;20461;-72
2022/07/26 12:21:37;;;;;;;5.47;4.47;;;;;;;;;;5093423;28;20951;-73
2022/07/26 12:24:06;;;;;;;5.93;5.33;;;;;;;;;;5093360;28;20481;-72
2022/07/26 12:26:33;;;;;;;5.53;4.60;;;;;;;;;;5093435;28;20451;-72
2022/07/26 12:29:23;;;;;;;5.13;4.63;;;;;;;;;;5093369;28;21019;-72
2022/07/26 12:32:00;;;;;;;5.30;4.80;;;;;;;;;;5092851;28;20498;-72
2022/07/26 12:34:27;;;;;;;5.17;4.67;;;;;;;;;;5093065;28;20434;-72
2022/07/26 12:36:54;;;;;;;5.33;4.80;;;;;;;;;;5093288;28;20450;-72
2022/07/26 12:39:23;;;;;;;6.30;4.17;;;;;;;;;;5093350;28;20435;-72
2022/07/26 12:41:51;;;;;;;5.70;4.77;;;;;;;;;;5092926;28;20485;-72
2022/07/26 12:44:21;;;;;;;4.57;4.13;;;;;;;;;;5092941;28;20490;-72
2022/07/26 12:46:48;;;;;;;5.93;4.80;;;;;;;;;;5093310;28;20439;-72
2022/07/26 12:49:16;;;;;;;7.40;4.53;;;;;;;;;;5093256;28;20807;-72
2022/07/26 12:51:43;;;;;;;4.03;3.70;;;;;;;;;;5093197;28;20457;-72
2022/07/26 12:54:10;;;;;;;5.03;4.40;;;;;;;;;;5093288;28;20453;-72
2022/07/26 12:56:39;;;;;;;5.57;3.70;;;;;;;;;;5093322;28;20450;-72
2022/07/26 12:59:06;;;;;;;4.23;3.93;;;;;;;;;;5093120;28;20813;-72
2022/07/26 13:01:33;;;;;;;4.30;3.83;;;;;;;;;;5093028;28;20455;-72
2022/07/26 13:04:00;;;;;;;4.73;3.63;;;;;;;;;;5092657;28;20454;-72
2022/07/26 13:06:27;;;;;;;4.40;3.73;;;;;;;;;;5092871;28;20447;-72
2022/07/26 13:08:55;;;;;;;7.63;4.80;;;;;;;;;;5092917;28;20473;-72
2022/07/26 13:11:22;;;;;;;4.80;3.80;;;;;;;;;;5094908;28;20512;-72
2022/07/26 13:13:50;;;;;;;4.13;3.53;;;;;;;;;;5096467;28;20462;-72
2022/07/26 13:16:18;;;;;;;3.30;3.00;;;;;;;;;;5096415;28;20438;-72
2022/07/26 13:18:45;;;;;;;5.53;2.70;;;;;;;;;;5096104;28;20451;-72
2022/07/26 13:21:12;;;;;;;7.17;3.40;;;;;;;;;;5096386;28;20803;-72
2022/07/26 13:23:40;;;;;;;3.80;2.93;;;;;;;;;;5095928;28;20524;-72
2022/07/26 13:26:07;;;;;;;3.00;2.50;;;;;;;;;;5096313;28;21017;-72
2022/07/26 13:28:34;;;;;;;4.47;3.43;;;;;;;;;;5096214;28;20462;-72
2022/07/26 13:31:02;;;;;;;4.43;3.03;;;;;;;;;;5095879;28;20465;-72
2022/07/26 13:33:29;;;;;;;4.13;2.50;;;;;;;;;;5096117;28;20467;-72
2022/07/26 13:35:56;;;;;;;3.97;2.97;;;;;;;;;;5095768;28;20457;-72
2022/07/26 13:38:24;;;;;;;3.20;2.70;;;;;;;;;;5096162;28;20450;-72
2022/07/26 13:40:51;;;;;;;3.40;3.10;;;;;;;;;;5095964;28;20451;-72
2022/07/26 13:43:18;;;;;;;4.30;3.33;;;;;;;;;;5095423;28;20490;-72
2022/07/26 13:45:45;;;;;;;5.47;2.70;;;;;;;;;;5095476;28;20525;-72
2022/07/26 13:48:14;;;;;;;5.90;3.30;;;;;;;;;;5095709;28;20459;-72
2022/07/26 13:50:41;;;;;;;4.37;3.97;;;;;;;;;;5095845;28;20457;-72
2022/07/26 13:53:08;;;;;;;7.93;3.80;;;;;;;;;;5095817;28;20478;-72
2022/07/26 13:55:35;;;;;;;2.73;2.50;;;;;;;;;;5095748;28;20446;-72
2022/07/26 13:58:02;;;;;;;3.10;2.60;;;;;;;;;;5095642;28;20814;-72
2022/07/26 14:00:30;;;;;;;3.07;2.20;;;;;;;;;;5095486;28;20455;-72
2022/07/26 14:02:58;;;;;;;3.40;2.50;;;;;;;;;;5095888;28;20578;-72
2022/07/26 14:05:27;;;;;;;3.20;2.13;;;;;;;;;;5095568;28;20478;-72
2022/07/26 14:07:55;;;;;;;4.17;2.10;;;;;;;;;;5095577;28;20500;-72
2022/07/26 14:10:22;;;;;;;3.73;2.73;;;;;;;;;;5095302;28;20475;-72
2022/07/26 14:12:50;;;;;;;3.70;3.40;;;;;;;;;;5095043;28;20489;-72
2022/07/26 14:15:18;;;;;;;6.60;3.37;;;;;;;;;;5095473;28;20786;-72
2022/07/26 14:17:45;;;;;;;4.83;2.90;;;;;;;;;;5095540;28;20819;-72
2022/07/26 14:20:13;;;;;;;4.40;2.60;;;;;;;;;;5095159;28;20435;-72
2022/07/26 14:22:42;;;;;;;3.90;2.90;;;;;;;;;;5094995;28;20466;-72
2022/07/26 14:25:09;;;;;;;3.27;2.90;;;;;;;;;;5095173;28;20557;-72
2022/07/26 14:27:36;;;;;;;2.90;2.70;;;;;;;;;;5095286;28;20824;-72
2022/07/26 14:30:04;;;;;;;3.77;3.30;;;;;;;;;;5095195;28;20447;-72
2022/07/26 14:32:31;;;;;;;4.40;2.27;;;;;;;;;;5095074;28;20471;-72
2022/07/26 14:34:59;;;;;;;3.13;2.73;;;;;;;;;;5095163;28;20625;-72
2022/07/26 14:37:26;;;;;;;4.07;2.70;;;;;;;;;;5094836;28;20458;-72
2022/07/26 14:39:54;;;;;;;5.10;2.80;;;;;;;;;;5094942;28;20889;-72
2022/07/26 14:42:21;;;;;;;6.40;3.30;;;;;;;;;;5094473;28;20475;-72
2022/07/26 14:44:48;;;;;;;4.70;2.60;;;;;;;;;;5095101;28;20792;-72
2022/07/26 14:47:15;;;;;;;3.07;2.77;;;;;;;;;;5094777;28;20465;-72